createdAt,value
2023-09-08T00:01:25.870Z,17.23
2023-09-08T00:03:53.652Z,17.19
2023-09-08T00:06:21.335Z,17.16
2023-09-08T00:08:48.949Z,17.12
2023-09-08T00:11:16.526Z,17.08
2023-09-08T00:13:44.126Z,17.05
2023-09-08T00:16:12.464Z,17.01
2023-09-08T00:18:40.133Z,16.95
2023-09-08T00:21:07.760Z,16.89
2023-09-08T00:23:35.339Z,16.86
2023-09-08T00:26:03.014Z,16.83
2023-09-08T00:28:30.625Z,16.81
2023-09-08T00:30:58.823Z,16.80
2023-09-08T00:33:26.445Z,16.80
2023-09-08T00:35:54.603Z,16.81
2023-09-08T00:38:22.181Z,16.78
2023-09-08T00:40:50.247Z,16.75
2023-09-08T00:43:17.923Z,16.71
2023-09-08T00:45:45.570Z,16.67
2023-09-08T00:48:13.354Z,16.65
2023-09-08T00:50:41.254Z,16.65
2023-09-08T00:53:08.874Z,16.65
2023-09-08T00:55:37.553Z,16.64
2023-09-08T00:58:05.097Z,16.60
2023-09-08T01:00:33.124Z,16.53
2023-09-08T01:03:01.329Z,16.47
2023-09-08T01:05:29.110Z,16.43
2023-09-08T01:07:57.477Z,16.40
2023-09-08T01:10:25.086Z,16.38
2023-09-08T01:12:52.811Z,16.36
2023-09-08T01:15:20.553Z,16.36
2023-09-08T01:17:48.464Z,16.38
2023-09-08T01:20:16.642Z,16.40
2023-09-08T01:22:44.243Z,16.43
2023-09-08T01:25:12.264Z,16.45
2023-09-08T01:27:39.996Z,16.47
2023-09-08T01:30:07.574Z,16.47
2023-09-08T01:32:35.146Z,16.46
2023-09-08T01:35:02.701Z,16.45
2023-09-08T01:37:30.281Z,16.44
2023-09-08T01:39:57.832Z,16.42
2023-09-08T01:42:25.415Z,16.38
2023-09-08T01:44:52.981Z,16.35
2023-09-08T01:47:20.512Z,16.33
2023-09-08T01:49:48.053Z,16.32
2023-09-08T01:52:15.582Z,16.30
2023-09-08T01:54:43.144Z,16.29
2023-09-08T01:57:10.886Z,16.26
2023-09-08T01:59:39.091Z,16.25
2023-09-08T02:02:06.656Z,16.22
2023-09-08T02:04:34.607Z,16.18
2023-09-08T02:07:02.863Z,16.17
2023-09-08T02:09:30.615Z,16.14
2023-09-08T02:11:58.202Z,16.12
2023-09-08T02:14:25.852Z,16.08
2023-09-08T02:16:53.406Z,16.03
2023-09-08T02:19:21.059Z,15.98
2023-09-08T02:21:48.631Z,15.90
2023-09-08T02:24:16.143Z,15.84
2023-09-08T02:26:43.771Z,15.79
2023-09-08T02:29:12.265Z,15.76
2023-09-08T02:31:39.785Z,15.70
2023-09-08T02:34:07.341Z,15.65
2023-09-08T02:36:34.904Z,15.61
2023-09-08T02:39:02.445Z,15.57
2023-09-08T02:41:29.991Z,15.54
2023-09-08T02:43:57.617Z,15.52
2023-09-08T02:46:25.857Z,15.51
2023-09-08T02:48:53.941Z,15.50
2023-09-08T02:51:21.942Z,15.48
2023-09-08T02:53:49.503Z,15.46
2023-09-08T02:56:17.086Z,15.44
2023-09-08T02:58:45.453Z,15.43
2023-09-08T03:01:14.661Z,15.40
2023-09-08T03:03:42.430Z,15.38
2023-09-08T03:06:10.031Z,15.38
2023-09-08T03:08:38.195Z,15.38
2023-09-08T03:11:05.852Z,15.38
2023-09-08T03:13:35.228Z,15.39
2023-09-08T03:16:02.858Z,15.40
2023-09-08T03:18:30.551Z,15.39
2023-09-08T03:20:58.113Z,15.38
2023-09-08T03:23:25.680Z,15.38
2023-09-08T03:25:53.260Z,15.39
2023-09-08T03:28:20.812Z,15.38
2023-09-08T03:30:48.358Z,15.38
2023-09-08T03:33:16.152Z,15.37
2023-09-08T03:35:45.615Z,15.37
2023-09-08T03:38:13.162Z,15.37
2023-09-08T03:40:40.720Z,15.35
2023-09-08T03:43:08.249Z,15.36
2023-09-08T03:45:35.940Z,15.35
2023-09-08T03:48:03.559Z,15.36
2023-09-08T03:50:31.104Z,15.37
2023-09-08T03:52:58.670Z,15.38
2023-09-08T03:55:26.268Z,15.39
2023-09-08T03:57:54.655Z,15.36
2023-09-08T04:00:23.654Z,15.32
2023-09-08T04:02:51.407Z,15.25
2023-09-08T04:05:19.116Z,15.21
2023-09-08T04:07:46.842Z,15.17
2023-09-08T04:10:14.806Z,15.14
2023-09-08T04:12:42.435Z,15.13
2023-09-08T04:15:10.110Z,15.12
2023-09-08T04:17:38.470Z,15.11
2023-09-08T04:20:06.980Z,15.08
2023-09-08T04:22:34.555Z,15.06
2023-09-08T04:25:02.142Z,15.03
2023-09-08T04:27:29.702Z,15.00
2023-09-08T04:29:57.315Z,14.98
2023-09-08T04:32:24.922Z,14.98
2023-09-08T04:34:52.511Z,14.95
2023-09-08T04:37:20.098Z,14.88
2023-09-08T04:39:47.660Z,14.81
2023-09-08T04:42:15.598Z,14.79
2023-09-08T04:44:43.138Z,14.75
2023-09-08T04:47:10.780Z,14.72
2023-09-08T04:49:39.582Z,14.70
2023-09-08T04:52:07.103Z,14.72
2023-09-08T04:54:34.736Z,14.73
2023-09-08T04:57:16.037Z,14.73
2023-09-08T04:59:48.447Z,14.73
2023-09-08T05:02:16.637Z,14.75
2023-09-08T05:04:44.300Z,14.76
2023-09-08T05:07:13.735Z,14.79
2023-09-08T05:09:41.341Z,14.82
2023-09-08T05:12:08.972Z,14.86
2023-09-08T05:14:36.666Z,14.92
2023-09-08T05:17:04.284Z,14.96
2023-09-08T05:19:31.798Z,15.01
2023-09-08T05:21:59.410Z,15.04
2023-09-08T05:24:28.331Z,15.09
2023-09-08T05:26:56.125Z,15.11
2023-09-08T05:29:23.814Z,15.13
2023-09-08T05:31:51.379Z,15.15
2023-09-08T05:34:19.011Z,15.19
2023-09-08T05:36:46.764Z,15.25
2023-09-08T05:39:14.821Z,15.29
2023-09-08T05:41:42.386Z,15.36
2023-09-08T05:44:10.079Z,15.43
2023-09-08T05:46:37.827Z,15.51
2023-09-08T05:49:05.551Z,15.61
2023-09-08T05:51:33.225Z,15.73
2023-09-08T05:54:00.821Z,15.82
2023-09-08T05:56:28.416Z,15.91
2023-09-08T05:58:56.012Z,16.00
2023-09-08T06:01:23.956Z,16.09
2023-09-08T06:03:51.775Z,16.17
2023-09-08T06:06:19.956Z,16.29
2023-09-08T06:08:47.508Z,16.40
2023-09-08T06:11:15.164Z,16.49
2023-09-08T06:13:43.629Z,16.60
2023-09-08T06:16:11.400Z,16.68
2023-09-08T06:18:41.538Z,16.80
2023-09-08T06:21:09.474Z,16.92
2023-09-08T06:23:38.096Z,17.08
2023-09-08T06:26:06.354Z,17.26
2023-09-08T06:28:34.677Z,17.42
2023-09-08T06:31:02.743Z,17.58
2023-09-08T06:33:30.579Z,17.68
2023-09-08T06:35:58.464Z,17.75
2023-09-08T06:38:26.846Z,17.82
2023-09-08T06:40:55.155Z,17.90
2023-09-08T06:43:22.869Z,17.99
2023-09-08T06:45:51.209Z,18.06
2023-09-08T06:48:18.912Z,18.12
2023-09-08T06:50:47.187Z,18.20
2023-09-08T06:53:15.049Z,18.36
2023-09-08T06:55:45.567Z,18.50
2023-09-08T06:58:16.095Z,18.66
2023-09-08T07:00:43.875Z,18.84
2023-09-08T07:03:11.905Z,19.03
2023-09-08T07:05:39.801Z,19.21
2023-09-08T07:08:07.835Z,19.37
2023-09-08T07:10:35.589Z,19.54
2023-09-08T07:13:03.723Z,19.70
2023-09-08T07:15:32.226Z,19.86
2023-09-08T07:18:00.050Z,19.98
2023-09-08T07:20:27.800Z,20.11
2023-09-08T07:22:55.916Z,20.25
2023-09-08T07:25:23.599Z,20.39
2023-09-08T07:27:54.004Z,20.54
2023-09-08T07:30:21.625Z,20.65
2023-09-08T07:32:49.371Z,20.76
2023-09-08T07:35:18.330Z,20.88
2023-09-08T07:37:46.102Z,21.01
2023-09-08T07:40:14.195Z,21.14
2023-09-08T07:42:42.086Z,21.27
2023-09-08T07:45:10.974Z,21.43
2023-09-08T07:47:39.687Z,21.57
2023-09-08T07:50:07.667Z,21.73
2023-09-08T07:52:35.751Z,21.88
2023-09-08T07:55:04.819Z,22.07
2023-09-08T07:57:32.988Z,22.27
2023-09-08T08:00:00.630Z,22.46
2023-09-08T08:02:28.390Z,22.63
2023-09-08T08:04:56.232Z,22.82
2023-09-08T08:07:23.974Z,22.98
2023-09-08T08:09:51.657Z,23.13
2023-09-08T08:12:19.590Z,23.28
2023-09-08T08:14:47.349Z,23.42
2023-09-08T08:17:15.167Z,23.58
2023-09-08T08:19:42.928Z,23.72
2023-09-08T08:22:10.790Z,23.84
2023-09-08T08:24:38.754Z,23.98
2023-09-08T08:27:06.500Z,24.11
2023-09-08T08:29:34.475Z,24.25
2023-09-08T08:32:02.164Z,24.40
2023-09-08T08:34:29.868Z,24.52
2023-09-08T08:36:57.553Z,24.65
2023-09-08T08:39:25.258Z,24.77
2023-09-08T08:41:53.542Z,24.90
2023-09-08T08:44:21.248Z,25.05
2023-09-08T08:46:49.054Z,25.17
2023-09-08T08:49:16.938Z,25.30
2023-09-08T08:51:44.751Z,25.43
2023-09-08T08:54:12.433Z,25.56
2023-09-08T08:56:40.295Z,25.66
2023-09-08T08:59:08.024Z,25.78
2023-09-08T09:01:35.671Z,25.90
2023-09-08T09:04:03.793Z,26.06
2023-09-08T09:06:31.585Z,26.21
2023-09-08T09:08:59.711Z,26.38
2023-09-08T09:11:27.417Z,26.54
2023-09-08T09:13:55.191Z,26.71
2023-09-08T09:16:22.887Z,26.83
2023-09-08T09:18:51.337Z,26.95
2023-09-08T09:21:19.015Z,27.16
2023-09-08T09:23:46.730Z,27.51
2023-09-08T09:26:15.264Z,27.84
2023-09-08T09:28:43.136Z,28.06
2023-09-08T09:31:12.463Z,28.24
2023-09-08T09:33:40.459Z,28.38
2023-09-08T09:36:08.555Z,28.48
2023-09-08T09:38:36.720Z,28.50
2023-09-08T09:41:04.814Z,28.51
2023-09-08T09:43:32.669Z,28.50
2023-09-08T09:46:00.358Z,28.51
2023-09-08T09:48:28.358Z,28.62
2023-09-08T09:50:56.019Z,28.81
2023-09-08T09:53:23.717Z,29.09
2023-09-08T09:55:52.092Z,29.51
2023-09-08T09:58:19.847Z,30.11
2023-09-08T10:00:49.659Z,30.88
2023-09-08T10:03:17.876Z,31.80
2023-09-08T10:05:48.168Z,32.71
2023-09-08T10:08:15.913Z,33.52
2023-09-08T10:10:47.331Z,34.16
2023-09-08T10:13:15.193Z,34.60
2023-09-08T10:15:42.921Z,34.93
2023-09-08T10:18:10.860Z,35.35
2023-09-08T10:20:38.878Z,35.87
2023-09-08T10:26:15.482Z,36.53
2023-09-08T10:28:43.195Z,36.57
2023-09-08T10:31:12.824Z,36.75
2023-09-08T10:33:42.229Z,36.58
2023-09-08T10:36:10.031Z,36.19
2023-09-08T10:38:38.111Z,35.81
2023-09-08T10:41:06.180Z,35.49
2023-09-08T10:43:35.604Z,35.16
2023-09-08T10:46:03.904Z,34.93
2023-09-08T10:48:31.898Z,34.95
2023-09-08T10:51:00.276Z,35.19
2023-09-08T10:53:28.075Z,35.11
2023-09-08T10:58:28.205Z,34.86
2023-09-08T11:01:00.574Z,34.84
2023-09-08T11:03:29.022Z,34.77
2023-09-08T11:05:57.559Z,34.68
2023-09-08T11:08:27.214Z,34.73
2023-09-08T11:10:56.674Z,34.81
2023-09-08T11:13:24.300Z,35.13
2023-09-08T11:15:52.128Z,35.66
2023-09-08T11:18:21.005Z,36.33
2023-09-08T11:20:48.859Z,36.89
2023-09-08T11:23:16.733Z,37.36
2023-09-08T11:25:44.463Z,37.79
2023-09-08T11:28:12.169Z,38.23
2023-09-08T11:30:40.010Z,38.45
2023-09-08T11:33:08.906Z,38.74
2023-09-08T11:35:36.751Z,39.14
2023-09-08T11:38:06.087Z,39.52
2023-09-08T11:40:34.030Z,39.87
2023-09-08T11:43:02.472Z,40.41
2023-09-08T11:45:30.632Z,40.87
2023-09-08T11:47:58.356Z,41.20
2023-09-08T11:50:26.235Z,41.57
2023-09-08T11:52:53.925Z,42.02
2023-09-08T11:55:23.846Z,42.68
2023-09-08T11:57:52.418Z,43.19
2023-09-08T12:00:21.093Z,43.56
2023-09-08T12:02:49.020Z,43.87
2023-09-08T12:05:17.023Z,44.15
2023-09-08T12:07:44.774Z,44.14
2023-09-08T12:10:13.240Z,43.76
2023-09-08T12:12:42.010Z,43.55
2023-09-08T12:15:09.801Z,43.62
2023-09-08T12:17:37.681Z,43.58
2023-09-08T12:20:05.628Z,43.54
2023-09-08T12:22:33.667Z,43.38
2023-09-08T12:25:03.259Z,43.13
2023-09-08T12:27:33.115Z,42.95
2023-09-08T12:30:01.669Z,42.83
2023-09-08T12:32:29.540Z,42.71
2023-09-08T12:34:57.282Z,42.43
2023-09-08T12:37:26.520Z,41.98
2023-09-08T12:39:54.776Z,41.64
2023-09-08T12:42:22.491Z,41.60
2023-09-08T12:44:51.305Z,41.64
2023-09-08T12:47:19.272Z,41.50
2023-09-08T12:49:47.182Z,40.83
2023-09-08T12:52:15.398Z,40.27
2023-09-08T12:54:43.104Z,39.93
2023-09-08T12:57:15.420Z,39.64
2023-09-08T12:59:43.408Z,39.27
2023-09-08T13:02:15.107Z,38.79
2023-09-08T13:04:42.951Z,38.12
2023-09-08T13:07:11.024Z,37.48
2023-09-08T13:09:39.068Z,36.94
2023-09-08T13:12:06.939Z,36.56
2023-09-08T13:14:34.820Z,36.20
2023-09-08T13:17:02.668Z,35.96
2023-09-08T13:19:30.681Z,35.98
2023-09-08T13:21:58.566Z,36.17
2023-09-08T13:24:26.800Z,36.49
2023-09-08T13:26:54.604Z,36.71
2023-09-08T13:29:22.566Z,36.66
2023-09-08T13:31:50.501Z,36.58
2023-09-08T13:34:18.782Z,36.45
2023-09-08T13:36:47.010Z,36.54
2023-09-08T13:39:14.925Z,36.82
2023-09-08T13:41:42.740Z,37.19
2023-09-08T13:44:10.573Z,37.45
2023-09-08T13:46:38.473Z,37.63
2023-09-08T13:49:07.266Z,37.74
2023-09-08T13:51:35.731Z,37.71
2023-09-08T13:54:08.037Z,37.67
2023-09-08T13:56:36.498Z,37.51
2023-09-08T13:59:05.095Z,37.42
2023-09-08T14:01:34.941Z,37.48
2023-09-08T14:04:04.235Z,37.50
2023-09-08T14:06:41.113Z,37.40
2023-09-08T14:14:29.290Z,38.10
2023-09-08T14:16:59.098Z,38.41
2023-09-08T14:19:26.914Z,38.99
2023-09-08T14:21:54.834Z,39.69
2023-09-08T14:24:22.777Z,40.32
2023-09-08T14:26:52.348Z,40.80
2023-09-08T14:29:20.293Z,41.34
2023-09-08T14:31:48.145Z,41.79
2023-09-08T14:34:16.214Z,41.96
2023-09-08T14:36:45.572Z,42.01
2023-09-08T14:39:16.296Z,41.94
2023-09-08T14:41:43.999Z,41.91
2023-09-08T14:44:11.904Z,41.71
2023-09-08T14:46:39.862Z,41.38
2023-09-08T14:49:07.666Z,40.93
2023-09-08T14:51:35.565Z,40.61
2023-09-08T14:54:03.321Z,40.53
2023-09-08T14:56:31.166Z,40.58
2023-09-08T14:58:59.104Z,40.62
2023-09-08T15:01:26.865Z,40.74
2023-09-08T15:03:56.361Z,40.99
2023-09-08T15:06:25.994Z,41.30
2023-09-08T15:08:56.035Z,41.62
2023-09-08T15:11:24.177Z,41.90
2023-09-08T15:13:52.117Z,41.96
2023-09-08T15:16:19.992Z,42.21
2023-09-08T15:18:47.809Z,42.47
2023-09-08T15:21:16.474Z,42.77
2023-09-08T15:23:45.460Z,42.99
2023-09-08T15:26:13.333Z,43.01
2023-09-08T15:28:41.270Z,43.05
2023-09-08T15:31:09.267Z,43.01
2023-09-08T15:33:39.177Z,43.10
2023-09-08T15:36:07.627Z,43.26
2023-09-08T15:38:35.473Z,43.44
2023-09-08T15:41:03.339Z,43.51
2023-09-08T15:43:31.145Z,43.53
2023-09-08T15:45:59.733Z,43.32
2023-09-08T15:48:27.527Z,43.23
2023-09-08T15:50:55.471Z,43.22
2023-09-08T15:53:23.336Z,43.34
2023-09-08T15:55:51.480Z,43.42
2023-09-08T15:58:20.278Z,43.40
2023-09-08T16:00:48.198Z,43.26
2023-09-08T16:03:16.101Z,42.11
2023-09-08T16:05:45.107Z,40.43
2023-09-08T16:08:12.912Z,38.86
2023-09-08T16:10:40.788Z,37.61
2023-09-08T16:13:08.881Z,36.57
2023-09-08T16:15:36.812Z,35.68
2023-09-08T16:20:34.244Z,34.37
2023-09-08T16:23:02.113Z,33.88
2023-09-08T16:25:30.531Z,33.42
2023-09-08T16:27:58.340Z,33.02
2023-09-08T16:30:26.196Z,32.66
2023-09-08T16:32:54.141Z,32.36
2023-09-08T16:35:22.043Z,32.10
2023-09-08T16:37:49.817Z,31.85
2023-09-08T16:40:18.059Z,31.61
2023-09-08T16:42:46.178Z,31.41
2023-09-08T16:45:15.526Z,31.22
2023-09-08T16:47:44.207Z,31.02
2023-09-08T16:50:12.024Z,30.87
2023-09-08T16:52:39.916Z,30.72
2023-09-08T16:55:12.765Z,30.59
2023-09-08T16:57:40.894Z,30.47
2023-09-08T17:00:10.500Z,30.33
2023-09-08T17:02:38.716Z,30.21
2023-09-08T17:05:06.688Z,30.12
2023-09-08T17:07:35.312Z,30.02
2023-09-08T17:10:04.928Z,29.90
2023-09-08T17:12:33.043Z,29.79
2023-09-08T17:15:01.006Z,29.65
2023-09-08T17:17:28.910Z,29.50
2023-09-08T17:19:57.727Z,29.35
2023-09-08T17:22:25.876Z,29.20
2023-09-08T17:24:54.763Z,29.04
2023-09-08T17:27:22.603Z,28.87
2023-09-08T17:29:50.266Z,28.68
2023-09-08T17:32:18.462Z,28.50
2023-09-08T17:34:47.716Z,28.29
2023-09-08T17:37:17.760Z,28.07
2023-09-08T17:39:45.853Z,27.89
2023-09-08T17:42:13.723Z,27.71
2023-09-08T17:44:43.025Z,27.58
2023-09-08T17:47:13.771Z,27.43
2023-09-08T17:49:41.776Z,27.36
2023-09-08T17:52:09.677Z,27.28
2023-09-08T17:54:37.660Z,27.19
2023-09-08T17:57:05.582Z,27.10
2023-09-08T17:59:33.370Z,27.01
2023-09-08T18:02:01.809Z,26.89
2023-09-08T18:04:29.929Z,26.77
2023-09-08T18:06:58.284Z,26.69
2023-09-08T18:09:26.317Z,26.59
2023-09-08T18:11:54.271Z,26.44
2023-09-08T18:14:22.200Z,26.31
2023-09-08T18:16:51.290Z,26.18
2023-09-08T18:19:19.140Z,26.05
2023-09-08T18:21:46.968Z,25.91
2023-09-08T18:24:14.852Z,25.76
2023-09-08T18:26:43.145Z,25.62
2023-09-08T18:29:11.411Z,25.44
2023-09-08T18:31:39.352Z,25.26
2023-09-08T18:34:07.343Z,25.08
2023-09-08T18:36:35.075Z,24.92
2023-09-08T18:39:03.008Z,24.79
2023-09-08T18:41:30.886Z,24.68
2023-09-08T18:43:58.732Z,24.54
2023-09-08T18:46:26.725Z,24.43
2023-09-08T18:48:54.608Z,24.33
2023-09-08T18:51:23.061Z,24.20
2023-09-08T18:53:50.975Z,24.09
2023-09-08T18:56:19.416Z,23.98
2023-09-08T18:58:47.502Z,23.90
2023-09-08T19:01:15.365Z,23.84
2023-09-08T19:03:43.227Z,23.79
2023-09-08T19:06:11.406Z,23.75
2023-09-08T19:08:40.391Z,23.69
2023-09-08T19:11:08.221Z,23.59
2023-09-08T19:13:36.644Z,23.52
2023-09-08T19:16:04.932Z,23.45
2023-09-08T19:18:32.817Z,23.38
2023-09-08T19:21:00.763Z,23.32
2023-09-08T19:23:29.256Z,23.25
2023-09-08T19:25:56.983Z,23.19
2023-09-08T19:28:24.929Z,23.13
2023-09-08T19:30:53.076Z,23.08
2023-09-08T19:33:21.102Z,23.03
2023-09-08T19:35:49.307Z,22.96
2023-09-08T19:38:18.926Z,22.88
2023-09-08T19:40:46.808Z,22.83
2023-09-08T19:43:14.608Z,22.79
2023-09-08T19:45:42.603Z,22.75
2023-09-08T19:48:10.697Z,22.72
2023-09-08T19:50:38.779Z,22.70
2023-09-08T19:53:06.959Z,22.67
2023-09-08T19:55:35.276Z,22.65
2023-09-08T19:58:03.628Z,22.61
2023-09-08T20:00:31.540Z,22.58
2023-09-08T20:02:59.447Z,22.52
2023-09-08T20:05:28.295Z,22.42
2023-09-08T20:07:56.291Z,22.29
2023-09-08T20:10:24.191Z,22.17
2023-09-08T20:12:51.991Z,22.06
2023-09-08T20:15:19.869Z,21.94
2023-09-08T20:17:48.662Z,21.85
2023-09-08T20:20:16.700Z,21.77
2023-09-08T20:22:44.620Z,21.72
2023-09-08T20:25:15.016Z,21.66
2023-09-08T20:27:42.902Z,21.64
2023-09-08T20:30:10.820Z,21.59
2023-09-08T20:32:38.804Z,21.56
2023-09-08T20:35:06.638Z,21.52
2023-09-08T20:37:34.630Z,21.50
2023-09-08T20:40:02.350Z,21.47
2023-09-08T20:42:30.520Z,21.43
2023-09-08T20:44:58.480Z,21.41
2023-09-08T20:47:26.298Z,21.38
2023-09-08T20:49:54.107Z,21.35
2023-09-08T20:52:22.029Z,21.32
2023-09-08T20:54:50.396Z,21.28
2023-09-08T20:57:20.008Z,21.23
2023-09-08T20:59:47.753Z,21.19
2023-09-08T21:02:16.826Z,21.13
2023-09-08T21:04:45.351Z,21.10
2023-09-08T21:07:13.312Z,21.03
2023-09-08T21:09:41.108Z,20.99
2023-09-08T21:12:08.903Z,20.94
2023-09-08T21:14:36.781Z,20.92
2023-09-08T21:17:05.633Z,20.87
2023-09-08T21:19:34.040Z,20.83
2023-09-08T21:22:02.006Z,20.79
2023-09-08T21:24:29.747Z,20.75
2023-09-08T21:27:00.621Z,20.72
2023-09-08T21:29:28.748Z,20.70
2023-09-08T21:31:57.719Z,20.66
2023-09-08T21:34:26.179Z,20.63
2023-09-08T21:36:54.235Z,20.60
2023-09-08T21:39:21.937Z,20.55
2023-09-08T21:41:49.923Z,20.52
2023-09-08T21:44:17.766Z,20.47
2023-09-08T21:46:45.518Z,20.45
2023-09-08T21:49:13.389Z,20.39
2023-09-08T21:51:41.194Z,20.33
2023-09-08T21:54:09.126Z,20.25
2023-09-08T21:56:37.312Z,20.19
2023-09-08T21:59:05.080Z,20.12
2023-09-08T22:01:32.907Z,20.06
2023-09-08T22:04:01.034Z,20.02
2023-09-08T22:06:28.885Z,19.98
2023-09-08T22:08:57.109Z,19.95
2023-09-08T22:11:25.312Z,19.94
2023-09-08T22:13:53.176Z,19.92
2023-09-08T22:16:21.164Z,19.90
2023-09-08T22:18:49.632Z,19.88
2023-09-08T22:21:17.567Z,19.85
2023-09-08T22:23:45.240Z,19.84
2023-09-08T22:26:12.858Z,19.83
2023-09-08T22:28:41.293Z,19.81
2023-09-08T22:31:09.060Z,19.80
2023-09-08T22:33:37.556Z,19.76
2023-09-08T22:36:05.855Z,19.74
2023-09-08T22:38:34.172Z,19.72
2023-09-08T22:41:02.700Z,19.68
2023-09-08T22:43:30.395Z,19.66
2023-09-08T22:45:58.171Z,19.65
2023-09-08T22:48:25.966Z,19.63
2023-09-08T22:50:53.698Z,19.61
2023-09-08T22:53:21.434Z,19.59
2023-09-08T22:55:49.537Z,19.57
2023-09-08T22:58:17.475Z,19.55
2023-09-08T23:00:45.225Z,19.52
2023-09-08T23:03:12.970Z,19.49
2023-09-08T23:05:40.759Z,19.45
2023-09-08T23:08:08.450Z,19.43
2023-09-08T23:10:36.237Z,19.38
2023-09-08T23:13:04.129Z,19.35
2023-09-08T23:15:33.446Z,19.31
2023-09-08T23:18:01.150Z,19.27
2023-09-08T23:20:28.827Z,19.25
2023-09-08T23:22:56.985Z,19.22
2023-09-08T23:25:24.661Z,19.17
2023-09-08T23:27:52.328Z,19.16
2023-09-08T23:30:19.982Z,19.14
2023-09-08T23:32:47.718Z,19.08
2023-09-08T23:35:15.676Z,19.04
2023-09-08T23:37:43.596Z,19.00
2023-09-08T23:40:12.991Z,18.94
2023-09-08T23:42:40.801Z,18.90
2023-09-08T23:45:08.471Z,18.86
2023-09-08T23:47:36.268Z,18.82
2023-09-08T23:50:04.571Z,18.78
2023-09-08T23:52:32.212Z,18.77
2023-09-08T23:54:59.822Z,18.75
2023-09-08T23:57:27.583Z,18.74
2023-09-08T23:59:55.288Z,18.71
